createdAt,value
2023-08-26T00:00:04.428Z,100630.00
2023-08-26T00:02:31.940Z,100634.00
2023-08-26T00:04:59.424Z,100633.00
2023-08-26T00:07:28.186Z,100629.00
2023-08-26T00:09:55.590Z,100627.00
2023-08-26T00:12:23.050Z,100624.00
2023-08-26T00:14:52.495Z,100632.00
2023-08-26T00:17:20.713Z,100628.00
2023-08-26T00:19:48.744Z,100633.00
2023-08-26T00:22:16.873Z,100626.00
2023-08-26T00:24:46.261Z,100625.00
2023-08-26T00:27:14.289Z,100622.00
2023-08-26T00:29:43.428Z,100635.00
2023-08-26T00:32:10.843Z,100620.00
2023-08-26T00:34:40.599Z,100618.00
2023-08-26T00:37:12.149Z,100620.00
2023-08-26T00:39:40.673Z,100608.00
2023-08-26T00:42:09.548Z,100622.00
2023-08-26T00:44:37.324Z,100622.00
2023-08-26T00:47:07.703Z,100636.00
2023-08-26T00:49:36.668Z,100632.00
2023-08-26T00:52:04.485Z,100628.00
2023-08-26T00:54:37.419Z,100645.00
2023-08-26T00:57:11.751Z,100651.00
2023-08-26T00:59:39.298Z,100654.00
2023-08-26T01:02:06.715Z,100661.00
2023-08-26T01:04:35.041Z,100655.00
2023-08-26T01:07:10.025Z,100660.00
2023-08-26T01:09:41.063Z,100662.00
2023-08-26T01:12:39.578Z,100660.00
2023-08-26T01:15:14.510Z,100665.00
2023-08-26T01:17:47.055Z,100675.00
2023-08-26T01:20:17.932Z,100661.00
2023-08-26T01:22:53.278Z,100678.00
2023-08-26T01:25:21.194Z,100677.00
2023-08-26T01:27:48.709Z,100679.00
2023-08-26T01:33:20.396Z,100686.00
2023-08-26T01:35:56.076Z,100685.00
2023-08-26T01:38:24.844Z,100690.00
2023-08-26T01:40:57.746Z,100674.00
2023-08-26T01:43:26.616Z,100695.00
2023-08-26T01:45:54.053Z,100672.00
2023-08-26T01:48:24.333Z,100676.00
2023-08-26T01:50:57.528Z,100682.00
2023-08-26T01:53:27.979Z,100681.00
2023-08-26T01:55:55.498Z,100676.00
2023-08-26T01:58:23.358Z,100689.00
2023-08-26T02:00:50.709Z,100689.00
2023-08-26T02:03:18.607Z,100689.00
2023-08-26T02:05:46.400Z,100685.00
2023-08-26T02:08:16.465Z,100686.00
2023-08-26T02:10:55.741Z,100684.00
2023-08-26T02:13:26.135Z,100685.00
2023-08-26T02:15:53.632Z,100685.00
2023-08-26T02:18:22.362Z,100691.00
2023-08-26T02:20:49.904Z,100700.00
2023-08-26T02:23:17.534Z,100699.00
2023-08-26T02:25:45.391Z,100693.00
2023-08-26T02:28:13.107Z,100701.00
2023-08-26T02:30:40.288Z,100697.00
2023-08-26T02:33:10.567Z,100693.00
2023-08-26T02:35:37.845Z,100695.00
2023-08-26T02:38:06.915Z,100688.00
2023-08-26T02:40:34.326Z,100685.00
2023-08-26T02:43:01.617Z,100688.00
2023-08-26T02:45:29.040Z,100690.00
2023-08-26T02:47:59.829Z,100693.00
2023-08-26T02:50:27.184Z,100697.00
2023-08-26T02:52:54.382Z,100697.00
2023-08-26T02:55:22.868Z,100701.00
2023-08-26T02:57:50.137Z,100697.00
2023-08-26T03:00:17.954Z,100692.00
2023-08-26T03:02:47.448Z,100693.00
2023-08-26T03:05:16.119Z,100705.00
2023-08-26T03:07:43.286Z,100697.00
2023-08-26T03:10:10.768Z,100700.00
2023-08-26T03:12:38.001Z,100703.00
2023-08-26T03:15:05.816Z,100706.00
2023-08-26T03:17:33.288Z,100715.00
2023-08-26T03:20:00.723Z,100722.00
2023-08-26T03:22:27.968Z,100718.00
2023-08-26T03:24:55.445Z,100721.00
2023-08-26T03:27:22.967Z,100720.00
2023-08-26T03:29:50.579Z,100730.00
2023-08-26T03:32:18.679Z,100721.00
2023-08-26T03:34:46.276Z,100713.00
2023-08-26T03:37:14.143Z,100710.00
2023-08-26T03:39:43.219Z,100718.00
2023-08-26T03:42:10.425Z,100728.00
2023-08-26T03:44:37.853Z,100723.00
2023-08-26T03:47:05.615Z,100719.00
2023-08-26T03:49:33.189Z,100730.00
2023-08-26T03:52:00.388Z,100723.00
2023-08-26T03:54:28.011Z,100727.00
2023-08-26T03:56:55.283Z,100727.00
2023-08-26T03:59:22.431Z,100721.00
2023-08-26T04:01:49.714Z,100716.00
2023-08-26T04:04:19.477Z,100728.00
2023-08-26T04:06:46.958Z,100726.00
2023-08-26T04:09:14.200Z,100725.00
2023-08-26T04:11:42.190Z,100720.00
2023-08-26T04:14:09.433Z,100720.00
2023-08-26T04:16:37.028Z,100710.00
2023-08-26T04:19:04.306Z,100733.00
2023-08-26T04:21:32.556Z,100723.00
2023-08-26T04:24:02.368Z,100726.00
2023-08-26T04:26:29.651Z,100733.00
2023-08-26T04:28:57.241Z,100748.00
2023-08-26T04:31:24.644Z,100744.00
2023-08-26T04:33:54.177Z,100723.00
2023-08-26T04:36:21.404Z,100744.00
2023-08-26T04:38:48.886Z,100739.00
2023-08-26T04:41:16.238Z,100751.00
2023-08-26T04:43:44.341Z,100757.00
2023-08-26T04:46:11.651Z,100752.00
2023-08-26T04:48:38.931Z,100754.00
2023-08-26T04:51:08.262Z,100756.00
2023-08-26T04:53:35.732Z,100761.00
2023-08-26T04:56:04.296Z,100757.00
2023-08-26T04:58:32.498Z,100765.00
2023-08-26T05:01:00.742Z,100768.00
2023-08-26T05:03:28.467Z,100770.00
2023-08-26T05:05:58.026Z,100766.00
2023-08-26T05:08:25.248Z,100781.00
2023-08-26T05:10:52.669Z,100779.00
2023-08-26T05:13:19.968Z,100781.00
2023-08-26T05:15:48.336Z,100773.00
2023-08-26T05:18:20.252Z,100782.00
2023-08-26T05:20:47.730Z,100780.00
2023-08-26T05:23:16.159Z,100774.00
2023-08-26T05:25:47.014Z,100780.00
2023-08-26T05:28:16.367Z,100794.00
2023-08-26T05:30:46.673Z,100786.00
2023-08-26T05:33:16.239Z,100770.00
2023-08-26T05:35:44.714Z,100787.00
2023-08-26T05:38:12.124Z,100790.00
2023-08-26T05:40:39.541Z,100789.00
2023-08-26T05:43:08.290Z,100797.00
2023-08-26T05:45:36.522Z,100786.00
2023-08-26T05:48:04.401Z,100797.00
2023-08-26T05:50:32.671Z,100785.00
2023-08-26T05:53:00.021Z,100796.00
2023-08-26T05:55:27.375Z,100773.00
2023-08-26T05:57:55.421Z,100783.00
2023-08-26T06:00:23.578Z,100787.00
2023-08-26T06:02:51.245Z,100775.00
2023-08-26T06:05:18.677Z,100770.00
2023-08-26T06:07:46.208Z,100784.00
2023-08-26T06:10:14.662Z,100778.00
2023-08-26T06:12:42.716Z,100778.00
2023-08-26T06:15:10.251Z,100771.00
2023-08-26T06:17:42.882Z,100769.00
2023-08-26T06:20:12.852Z,100781.00
2023-08-26T06:22:43.245Z,100763.00
2023-08-26T06:25:10.741Z,100774.00
2023-08-26T06:27:38.181Z,100761.00
2023-08-26T06:30:07.807Z,100782.00
2023-08-26T06:32:35.367Z,100766.00
2023-08-26T06:35:03.177Z,100772.00
2023-08-26T06:41:40.850Z,100766.00
2023-08-26T06:44:12.374Z,100773.00
2023-08-26T06:46:41.703Z,100776.00
2023-08-26T06:49:09.547Z,100763.00
2023-08-26T06:51:37.076Z,100775.00
2023-08-26T06:54:04.789Z,100761.00
2023-08-26T06:56:32.302Z,100767.00
2023-08-26T07:03:15.148Z,100768.00
2023-08-26T07:05:47.916Z,100768.00
2023-08-26T07:08:16.379Z,100768.00
2023-08-26T07:10:47.367Z,100771.00
2023-08-26T07:13:15.226Z,100763.00
2023-08-26T07:15:42.775Z,100759.00
2023-08-26T07:18:10.428Z,100758.00
2023-08-26T07:20:58.726Z,100758.00
2023-08-26T07:23:26.248Z,100763.00
2023-08-26T07:26:50.073Z,100764.00
2023-08-26T07:29:17.997Z,100749.00
2023-08-26T07:31:45.393Z,100758.00
2023-08-26T07:34:12.743Z,100748.00
2023-08-26T07:36:40.191Z,100759.00
2023-08-26T07:43:17.774Z,100749.00
2023-08-26T07:46:55.824Z,100752.00
2023-08-26T07:48:37.932Z,100755.00
2023-08-26T07:51:06.135Z,100744.00
2023-08-26T07:53:33.613Z,100748.00
2023-08-26T07:56:00.933Z,100759.00
2023-08-26T07:58:29.863Z,100765.00
2023-08-26T08:00:57.308Z,100769.00
2023-08-26T08:03:25.085Z,100766.00
2023-08-26T08:05:52.581Z,100781.00
2023-08-26T08:08:20.123Z,100768.00
2023-08-26T08:10:47.852Z,100777.00
2023-08-26T08:13:21.435Z,100783.00
2023-08-26T08:15:49.155Z,100778.00
2023-08-26T08:18:16.516Z,100771.00
2023-08-26T08:20:43.957Z,100773.00
2023-08-26T08:23:11.405Z,100779.00
2023-08-26T08:25:38.800Z,100777.00
2023-08-26T08:28:06.897Z,100784.00
2023-08-26T08:30:34.758Z,100778.00
2023-08-26T08:33:02.058Z,100785.00
2023-08-26T08:35:29.526Z,100792.00
2023-08-26T08:37:56.669Z,100783.00
2023-08-26T08:40:25.015Z,100782.00
2023-08-26T08:42:55.151Z,100780.00
2023-08-26T08:45:24.014Z,100786.00
2023-08-26T08:47:55.431Z,100785.00
2023-08-26T08:50:23.571Z,100783.00
2023-08-26T08:52:56.698Z,100781.00
2023-08-26T08:55:25.184Z,100786.00
2023-08-26T08:57:54.643Z,100782.00
2023-08-26T09:00:26.619Z,100778.00
2023-08-26T09:03:33.798Z,100787.00
2023-08-26T09:06:59.383Z,100770.00
2023-08-26T09:09:32.092Z,100775.00
2023-08-26T09:12:03.297Z,100773.00
2023-08-26T09:14:30.601Z,100765.00
2023-08-26T09:16:58.417Z,100761.00
2023-08-26T09:23:46.070Z,100767.00
2023-08-26T09:26:13.785Z,100771.00
2023-08-26T09:28:50.033Z,100787.00
2023-08-26T09:31:17.819Z,100776.00
2023-08-26T09:34:01.186Z,100775.00
2023-08-26T09:36:42.790Z,100776.00
2023-08-26T09:39:14.830Z,100772.00
2023-08-26T09:41:47.787Z,100776.00
2023-08-26T09:44:18.147Z,100778.00
2023-08-26T09:46:46.671Z,100774.00
2023-08-26T09:49:19.838Z,100771.00
2023-08-26T09:51:51.400Z,100759.00
2023-08-26T09:54:21.425Z,100767.00
2023-08-26T09:56:50.473Z,100764.00
2023-08-26T09:59:18.939Z,100772.00
2023-08-26T10:01:56.262Z,100764.00
2023-08-26T10:04:31.234Z,100762.00
2023-08-26T10:07:02.751Z,100764.00
2023-08-26T10:09:45.228Z,100776.00
2023-08-26T10:12:23.136Z,100774.00
2023-08-26T10:14:55.797Z,100782.00
2023-08-26T10:17:27.260Z,100769.00
2023-08-26T10:19:57.397Z,100773.00
2023-08-26T10:22:26.522Z,100774.00
2023-08-26T10:24:54.895Z,100779.00
2023-08-26T10:27:25.551Z,100774.00
2023-08-26T10:29:57.482Z,100773.00
2023-08-26T10:32:30.009Z,100764.00
2023-08-26T10:35:00.426Z,100771.00
2023-08-26T10:37:32.710Z,100776.00
2023-08-26T10:40:15.357Z,100766.00
2023-08-26T10:43:07.287Z,100787.00
2023-08-26T10:55:18.414Z,100783.00
2023-08-26T10:58:42.497Z,100791.00
2023-08-26T11:01:13.977Z,100796.00
2023-08-26T11:03:42.382Z,100789.00
2023-08-26T11:06:10.094Z,100797.00
2023-08-26T11:08:53.408Z,100789.00
2023-08-26T11:11:21.829Z,100785.00
2023-08-26T11:13:49.488Z,100785.00
2023-08-26T11:16:23.831Z,100782.00
2023-08-26T11:18:55.176Z,100779.00
2023-08-26T11:21:24.202Z,100750.00
2023-08-26T11:24:10.425Z,100764.00
2023-08-26T11:26:37.813Z,100765.00
2023-08-26T11:29:06.074Z,100770.00
2023-08-26T11:31:36.021Z,100776.00
2023-08-26T11:34:03.489Z,100771.00
2023-08-26T11:36:53.120Z,100780.00
2023-08-26T11:39:21.110Z,100781.00
2023-08-26T11:41:48.652Z,100779.00
2023-08-26T11:44:17.782Z,100778.00
2023-08-26T11:46:45.536Z,100774.00
2023-08-26T11:49:14.150Z,100781.00
2023-08-26T11:57:02.387Z,100763.00
2023-08-26T11:59:40.240Z,100765.00
2023-08-26T12:02:28.446Z,100762.00
2023-08-26T12:05:01.755Z,100765.00
2023-08-26T12:07:32.572Z,100763.00
2023-08-26T12:10:13.738Z,100760.00
2023-08-26T12:12:42.905Z,100769.00
2023-08-26T12:15:13.758Z,100767.00
2023-08-26T12:18:01.763Z,100779.00
2023-08-26T12:20:32.972Z,100763.00
2023-08-26T12:23:03.780Z,100770.00
2023-08-26T12:25:35.329Z,100769.00
2023-08-26T12:28:20.242Z,100759.00
2023-08-26T12:30:52.519Z,100766.00
2023-08-26T12:33:25.614Z,100757.00
2023-08-26T12:35:56.873Z,100765.00
2023-08-26T12:38:25.063Z,100757.00
2023-08-26T12:40:52.519Z,100764.00
2023-08-26T12:43:20.785Z,100751.00
2023-08-26T12:45:50.682Z,100746.00
2023-08-26T12:50:51.499Z,100746.00
2023-08-26T12:53:20.304Z,100748.00
2023-08-26T12:55:47.608Z,100745.00
2023-08-26T12:58:32.564Z,100740.00
2023-08-26T13:00:59.967Z,100749.00
2023-08-26T13:03:32.261Z,100737.00
2023-08-26T13:06:00.117Z,100751.00
2023-08-26T13:08:30.895Z,100770.00
2023-08-26T13:11:01.069Z,100769.00
2023-08-26T13:13:29.533Z,100776.00
2023-08-26T13:16:02.231Z,100755.00
2023-08-26T13:18:33.027Z,100770.00
2023-08-26T13:21:19.248Z,100782.00
2023-08-26T13:23:50.421Z,100774.00
2023-08-26T13:26:17.896Z,100785.00
2023-08-26T13:28:49.592Z,100779.00
2023-08-26T13:31:17.823Z,100783.00
2023-08-26T13:33:45.591Z,100771.00
2023-08-26T13:36:13.297Z,100773.00
2023-08-26T13:38:41.672Z,100766.00
2023-08-26T13:41:15.999Z,100768.00
2023-08-26T13:43:44.819Z,100767.00
2023-08-26T13:46:13.165Z,100768.00
2023-08-26T13:48:41.510Z,100769.00
2023-08-26T13:51:10.307Z,100766.00
2023-08-26T13:53:37.778Z,100756.00
2023-08-26T13:56:05.708Z,100752.00
2023-08-26T13:58:33.289Z,100757.00
2023-08-26T14:01:03.923Z,100742.00
2023-08-26T14:03:31.688Z,100763.00
2023-08-26T14:06:00.284Z,100759.00
2023-08-26T14:08:27.720Z,100758.00
2023-08-26T14:10:57.559Z,100754.00
2023-08-26T14:13:24.903Z,100758.00
2023-08-26T14:15:53.414Z,100753.00
2023-08-26T14:18:24.438Z,100751.00
2023-08-26T14:20:52.062Z,100743.00
2023-08-26T14:23:19.875Z,100742.00
2023-08-26T14:29:47.659Z,100758.00
2023-08-26T14:32:21.205Z,100754.00
2023-08-26T14:34:48.716Z,100754.00
2023-08-26T14:37:16.255Z,100738.00
2023-08-26T14:39:44.004Z,100745.00
2023-08-26T14:42:12.005Z,100743.00
2023-08-26T14:44:39.587Z,100748.00
2023-08-26T14:47:07.013Z,100742.00
2023-08-26T14:49:53.176Z,100746.00
2023-08-26T14:52:21.009Z,100751.00
2023-08-26T14:54:48.495Z,100751.00
2023-08-26T14:57:17.653Z,100740.00
2023-08-26T14:59:45.296Z,100743.00
2023-08-26T15:02:13.872Z,100747.00
2023-08-26T15:04:42.502Z,100753.00
2023-08-26T15:07:12.154Z,100747.00
2023-08-26T15:09:40.467Z,100737.00
2023-08-26T15:12:08.302Z,100733.00
2023-08-26T15:14:38.399Z,100720.00
2023-08-26T15:17:06.101Z,100728.00
2023-08-26T15:23:33.454Z,100722.00
2023-08-26T15:26:04.620Z,100715.00
2023-08-26T15:28:32.426Z,100701.00
2023-08-26T15:31:01.130Z,100705.00
2023-08-26T15:33:28.586Z,100704.00
2023-08-26T15:35:57.286Z,100707.00
2023-08-26T15:38:25.150Z,100714.00
2023-08-26T15:40:58.617Z,100709.00
2023-08-26T15:43:27.332Z,100712.00
2023-08-26T15:45:55.196Z,100707.00
2023-08-26T15:48:23.040Z,100710.00
2023-08-26T15:50:51.651Z,100696.00
2023-08-26T15:53:22.871Z,100705.00
2023-08-26T15:55:50.839Z,100697.00
2023-08-26T15:58:19.514Z,100707.00
2023-08-26T16:00:47.743Z,100706.00
2023-08-26T16:03:15.406Z,100704.00
2023-08-26T16:05:43.162Z,100700.00
2023-08-26T16:08:10.502Z,100698.00
2023-08-26T16:10:38.790Z,100695.00
2023-08-26T16:13:07.966Z,100688.00
2023-08-26T16:15:35.561Z,100692.00
2023-08-26T16:18:03.721Z,100695.00
2023-08-26T16:20:31.282Z,100695.00
2023-08-26T16:23:01.809Z,100697.00
2023-08-26T16:25:29.155Z,100698.00
2023-08-26T16:27:56.790Z,100706.00
2023-08-26T16:30:24.124Z,100702.00
2023-08-26T16:32:51.816Z,100704.00
2023-08-26T16:35:19.269Z,100700.00
2023-08-26T16:37:49.251Z,100698.00
2023-08-26T16:40:17.215Z,100698.00
2023-08-26T16:42:44.694Z,100699.00
2023-08-26T16:45:12.246Z,100705.00
2023-08-26T16:47:39.675Z,100701.00
2023-08-26T16:50:07.638Z,100704.00
2023-08-26T16:52:34.987Z,100700.00
2023-08-26T16:55:05.632Z,100699.00
2023-08-26T16:57:32.884Z,100699.00
2023-08-26T17:00:02.997Z,100698.00
2023-08-26T17:02:30.436Z,100697.00
2023-08-26T17:04:58.095Z,100705.00
2023-08-26T17:07:26.082Z,100703.00
2023-08-26T17:09:53.507Z,100692.00
2023-08-26T17:12:21.084Z,100705.00
2023-08-26T17:14:51.710Z,100713.00
2023-08-26T17:17:19.171Z,100717.00
2023-08-26T17:19:46.400Z,100709.00
2023-08-26T17:22:13.951Z,100730.00
2023-08-26T17:24:42.790Z,100739.00
2023-08-26T17:27:10.984Z,100732.00
2023-08-26T17:29:38.725Z,100735.00
2023-08-26T17:32:06.223Z,100736.00
2023-08-26T17:34:33.506Z,100742.00
2023-08-26T17:37:00.979Z,100736.00
2023-08-26T17:39:28.620Z,100747.00
2023-08-26T17:41:59.064Z,100731.00
2023-08-26T17:44:26.434Z,100743.00
2023-08-26T17:46:53.689Z,100744.00
2023-08-26T17:49:26.804Z,100733.00
2023-08-26T17:51:54.269Z,100758.00
2023-08-26T17:54:24.466Z,100759.00
2023-08-26T17:56:54.897Z,100752.00
2023-08-26T17:59:23.686Z,100759.00
2023-08-26T18:01:52.172Z,100764.00
2023-08-26T18:04:20.124Z,100748.00
2023-08-26T18:06:48.743Z,100756.00
2023-08-26T18:09:16.065Z,100771.00
2023-08-26T18:11:44.492Z,100771.00
2023-08-26T18:14:13.390Z,100787.00
2023-08-26T18:16:44.635Z,100775.00
2023-08-26T18:19:14.337Z,100778.00
2023-08-26T18:21:44.623Z,100791.00
2023-08-26T18:24:12.749Z,100797.00
2023-08-26T18:26:40.727Z,100780.00
2023-08-26T18:29:14.773Z,100776.00
2023-08-26T18:31:42.384Z,100797.00
2023-08-26T18:34:11.603Z,100801.00
2023-08-26T18:36:39.111Z,100797.00
2023-08-26T18:39:06.564Z,100801.00
2023-08-26T18:41:33.905Z,100814.00
2023-08-26T18:44:03.347Z,100807.00
2023-08-26T18:46:30.770Z,100813.00
2023-08-26T18:48:58.534Z,100831.00
2023-08-26T18:51:30.604Z,100826.00
2023-08-26T18:57:19.479Z,100821.00
2023-08-26T18:59:48.285Z,100816.00
2023-08-26T19:02:34.807Z,100811.00
2023-08-26T19:05:03.502Z,100814.00
2023-08-26T19:07:33.800Z,100817.00
2023-08-26T19:10:02.890Z,100815.00
2023-08-26T19:12:31.829Z,100817.00
2023-08-26T19:15:02.362Z,100810.00
2023-08-26T19:17:33.402Z,100826.00
2023-08-26T19:20:00.923Z,100817.00
2023-08-26T19:22:28.500Z,100805.00
2023-08-26T19:24:57.189Z,100817.00
2023-08-26T19:27:25.726Z,100816.00
2023-08-26T19:29:56.002Z,100815.00
2023-08-26T19:32:23.451Z,100825.00
2023-08-26T19:34:50.887Z,100823.00
2023-08-26T19:37:18.718Z,100816.00
2023-08-26T19:39:46.920Z,100822.00
2023-08-26T19:42:14.509Z,100806.00
2023-08-26T19:44:44.589Z,100822.00
2023-08-26T19:47:13.289Z,100810.00
2023-08-26T19:49:40.538Z,100808.00
2023-08-26T19:52:07.899Z,100807.00
2023-08-26T19:54:35.702Z,100809.00
2023-08-26T19:57:23.943Z,100793.00
2023-08-26T19:59:53.956Z,100800.00
2023-08-26T20:02:22.758Z,100793.00
2023-08-26T20:04:55.989Z,100797.00
2023-08-26T20:07:23.535Z,100805.00
2023-08-26T20:09:50.917Z,100798.00
2023-08-26T20:12:18.665Z,100793.00
2023-08-26T20:14:47.255Z,100796.00
2023-08-26T20:17:14.588Z,100799.00
2023-08-26T20:19:43.209Z,100786.00
2023-08-26T20:22:10.631Z,100788.00
2023-08-26T20:24:39.791Z,100791.00
2023-08-26T20:27:07.157Z,100790.00
2023-08-26T20:29:34.506Z,100773.00
2023-08-26T20:32:03.559Z,100780.00
2023-08-26T20:34:31.007Z,100771.00
2023-08-26T20:36:59.422Z,100763.00
2023-08-26T20:39:27.531Z,100773.00
2023-08-26T20:41:55.145Z,100766.00
2023-08-26T20:44:22.633Z,100762.00
2023-08-26T20:46:52.987Z,100775.00
2023-08-26T20:49:24.071Z,100772.00
2023-08-26T20:51:52.287Z,100780.00
2023-08-26T20:54:43.628Z,100776.00
2023-08-26T20:57:11.970Z,100779.00
2023-08-26T20:59:39.614Z,100779.00
2023-08-26T21:02:07.493Z,100772.00
2023-08-26T21:04:35.030Z,100761.00
2023-08-26T21:07:02.442Z,100771.00
2023-08-26T21:09:30.267Z,100772.00
2023-08-26T21:11:57.649Z,100772.00
2023-08-26T21:14:25.203Z,100765.00
2023-08-26T21:16:54.628Z,100768.00
2023-08-26T21:19:22.116Z,100766.00
2023-08-26T21:21:52.579Z,100759.00
2023-08-26T21:24:22.839Z,100766.00
2023-08-26T21:26:50.581Z,100767.00
2023-08-26T21:29:18.832Z,100754.00
2023-08-26T21:31:47.454Z,100767.00
2023-08-26T21:34:16.699Z,100777.00
2023-08-26T21:36:53.389Z,100763.00
2023-08-26T21:39:21.073Z,100772.00
2023-08-26T21:41:50.362Z,100765.00
2023-08-26T21:44:32.332Z,100759.00
2023-08-26T21:47:06.876Z,100771.00
2023-08-26T21:50:12.527Z,100775.00
2023-08-26T21:52:43.033Z,100780.00
2023-08-26T21:55:10.980Z,100781.00
2023-08-26T21:57:38.349Z,100776.00
2023-08-26T22:00:07.986Z,100762.00
2023-08-26T22:02:35.367Z,100772.00
2023-08-26T22:05:02.868Z,100772.00
2023-08-26T22:07:35.563Z,100777.00
2023-08-26T22:10:05.881Z,100762.00
2023-08-26T22:12:45.998Z,100766.00
2023-08-26T22:15:14.152Z,100766.00
2023-08-26T22:17:41.693Z,100760.00
2023-08-26T22:20:12.855Z,100764.00
2023-08-26T22:22:44.644Z,100747.00
2023-08-26T22:25:13.611Z,100750.00
2023-08-26T22:27:44.210Z,100765.00
2023-08-26T22:30:14.849Z,100749.00
2023-08-26T22:32:50.007Z,100768.00
2023-08-26T22:35:17.452Z,100762.00
2023-08-26T22:37:44.848Z,100769.00
2023-08-26T22:40:14.604Z,100772.00
2023-08-26T22:42:42.303Z,100756.00
2023-08-26T22:45:11.926Z,100768.00
2023-08-26T22:47:39.542Z,100747.00
2023-08-26T22:50:07.353Z,100762.00
2023-08-26T22:52:35.131Z,100753.00
2023-08-26T22:55:03.072Z,100749.00
2023-08-26T22:57:30.555Z,100745.00
2023-08-26T23:00:16.800Z,100741.00
2023-08-26T23:02:46.513Z,100739.00
2023-08-26T23:05:14.126Z,100736.00
2023-08-26T23:07:41.414Z,100711.00
2023-08-26T23:10:11.940Z,100711.00
2023-08-26T23:12:39.458Z,100709.00
2023-08-26T23:15:07.767Z,100713.00
2023-08-26T23:17:38.465Z,100699.00
2023-08-26T23:20:06.742Z,100706.00
2023-08-26T23:22:36.550Z,100725.00
2023-08-26T23:25:04.418Z,100735.00
2023-08-26T23:27:32.127Z,100740.00
2023-08-26T23:30:01.737Z,100725.00
2023-08-26T23:32:30.811Z,100713.00
2023-08-26T23:35:06.178Z,100712.00
2023-08-26T23:37:36.792Z,100710.00
2023-08-26T23:40:06.386Z,100702.00
2023-08-26T23:42:34.222Z,100702.00
2023-08-26T23:45:01.660Z,100706.00
2023-08-26T23:47:29.053Z,100700.00
2023-08-26T23:49:56.411Z,100699.00
2023-08-26T23:52:23.993Z,100698.00
2023-08-26T23:54:51.283Z,100693.00
2023-08-26T23:58:27.653Z,100695.00
